Ivesdale, Illinois
Current Conditions -  °F | °C
As of 6:53 AM on Wednesday 26 Nov 2014 (Local Time) from KCMI Reporting Station
Haze Haze  
Wind Chill: 12°   Ceiling: Unl
Heat Index: 21°   Visibility: 6mi
Dew Point: 18°   Wind: 7mph
Humidity: 88%   Direction: 90°E
Pressure: 30.13"   Gusts: NA
Location:  39.94°N, 88.46°W
Report Text: KCMI 261253Z 09006KT 6SM BR CLR M06/M08 A3013 RMK AO2 SLP214 T10611078 $
Loading
Personal Weather Stations






























Interactive Weather Map New forecast layout! Learn more

10-Day Weather Forecast

Advertisements
Track Severe Weather on mobile